sensor_id;sensor_type;location;lat;lon;timestamp;P1;durP1;ratioP1;P2;durP2;ratioP2
5742;SDS011;2896;53.500;10.020;2024-01-15T00:00:19;5.90;;;1.87;;
5742;SDS011;2896;53.500;10.020;2024-01-15T00:02:47;12.93;;;2.97;;
5742;SDS011;2896;53.500;10.020;2024-01-15T00:05:14;10.73;;;3.17;;
5742;SDS011;2896;53.500;10.020;2024-01-15T00:07:41;18.83;;;3.00;;
5742;SDS011;2896;53.500;10.020;2024-01-15T00:10:08;10.77;;;2.40;;
5742;SDS011;2896;53.500;10.020;2024-01-15T00:12:35;13.10;;;3.50;;
5742;SDS011;2896;53.500;10.020;2024-01-15T00:15:02;17.03;;;2.23;;
5742;SDS011;2896;53.500;10.020;2024-01-15T00:17:30;16.57;;;2.80;;
5742;SDS011;2896;53.500;10.020;2024-01-15T00:19:58;5.10;;;2.10;;
5742;SDS011;2896;53.500;10.020;2024-01-15T00:22:25;10.13;;;2.40;;
5742;SDS011;2896;53.500;10.020;2024-01-15T00:24:52;4.27;;;2.00;;
5742;SDS011;2896;53.500;10.020;2024-01-15T00:27:19;8.00;;;2.53;;
5742;SDS011;2896;53.500;10.020;2024-01-15T00:29:46;11.23;;;3.00;;
5742;SDS011;2896;53.500;10.020;2024-01-15T00:32:15;11.97;;;2.70;;
5742;SDS011;2896;53.500;10.020;2024-01-15T00:34:42;18.13;;;3.40;;
5742;SDS011;2896;53.500;10.020;2024-01-15T00:37:10;13.77;;;2.43;;
5742;SDS011;2896;53.500;10.020;2024-01-15T00:39:37;24.43;;;2.80;;
5742;SDS011;2896;53.500;10.020;2024-01-15T00:42:04;11.33;;;2.40;;
5742;SDS011;2896;53.500;10.020;2024-01-15T00:44:31;11.40;;;3.10;;
5742;SDS011;2896;53.500;10.020;2024-01-15T00:46:58;5.20;;;2.13;;
5742;SDS011;2896;53.500;10.020;2024-01-15T00:49:26;10.33;;;2.83;;
5742;SDS011;2896;53.500;10.020;2024-01-15T00:51:54;6.97;;;2.50;;
5742;SDS011;2896;53.500;10.020;2024-01-15T00:54:22;20.90;;;3.70;;
5742;SDS011;2896;53.500;10.020;2024-01-15T00:56:48;6.87;;;2.80;;
5742;SDS011;2896;53.500;10.020;2024-01-15T00:59:16;5.97;;;2.70;;
5742;SDS011;2896;53.500;10.020;2024-01-15T01:01:43;12.67;;;2.40;;
5742;SDS011;2896;53.500;10.020;2024-01-15T01:04:11;20.27;;;2.50;;
5742;SDS011;2896;53.500;10.020;2024-01-15T01:06:38;14.17;;;2.80;;
5742;SDS011;2896;53.500;10.020;2024-01-15T01:09:05;12.40;;;4.03;;
5742;SDS011;2896;53.500;10.020;2024-01-15T01:11:33;12.70;;;2.50;;
5742;SDS011;2896;53.500;10.020;2024-01-15T01:14:00;10.00;;;2.97;;
5742;SDS011;2896;53.500;10.020;2024-01-15T01:16:28;19.27;;;4.23;;
5742;SDS011;2896;53.500;10.020;2024-01-15T01:18:56;12.73;;;2.33;;
5742;SDS011;2896;53.500;10.020;2024-01-15T01:21:23;15.60;;;2.20;;
5742;SDS011;2896;53.500;10.020;2024-01-15T01:23:49;13.50;;;2.27;;
5742;SDS011;2896;53.500;10.020;2024-01-15T01:26:16;13.13;;;2.07;;
5742;SDS011;2896;53.500;10.020;2024-01-15T01:28:45;14.07;;;2.47;;
5742;SDS011;2896;53.500;10.020;2024-01-15T01:31:12;19.10;;;2.83;;
5742;SDS011;2896;53.500;10.020;2024-01-15T01:33:39;21.37;;;3.17;;
5742;SDS011;2896;53.500;10.020;2024-01-15T01:36:07;8.73;;;2.57;;
5742;SDS011;2896;53.500;10.020;2024-01-15T01:38:34;20.63;;;3.07;;
5742;SDS011;2896;53.500;10.020;2024-01-15T01:41:01;20.50;;;3.27;;
5742;SDS011;2896;53.500;10.020;2024-01-15T01:43:28;8.53;;;2.30;;
5742;SDS011;2896;53.500;10.020;2024-01-15T01:45:57;7.60;;;1.60;;
5742;SDS011;2896;53.500;10.020;2024-01-15T01:48:25;4.67;;;1.87;;
5742;SDS011;2896;53.500;10.020;2024-01-15T01:50:52;11.10;;;2.57;;
5742;SDS011;2896;53.500;10.020;2024-01-15T01:53:19;16.10;;;2.77;;
5742;SDS011;2896;53.500;10.020;2024-01-15T01:55:46;13.73;;;2.50;;
5742;SDS011;2896;53.500;10.020;2024-01-15T01:58:14;14.00;;;2.73;;
5742;SDS011;2896;53.500;10.020;2024-01-15T02:00:41;3.70;;;1.80;;
5742;SDS011;2896;53.500;10.020;2024-01-15T02:03:10;10.67;;;2.00;;
5742;SDS011;2896;53.500;10.020;2024-01-15T02:05:37;9.00;;;2.20;;
5742;SDS011;2896;53.500;10.020;2024-01-15T02:08:06;8.30;;;2.77;;
5742;SDS011;2896;53.500;10.020;2024-01-15T02:10:33;1.90;;;1.77;;
5742;SDS011;2896;53.500;10.020;2024-01-15T02:12:59;6.73;;;2.00;;
5742;SDS011;2896;53.500;10.020;2024-01-15T02:15:26;9.23;;;2.00;;
5742;SDS011;2896;53.500;10.020;2024-01-15T02:17:57;12.83;;;1.57;;
5742;SDS011;2896;53.500;10.020;2024-01-15T02:20:26;6.60;;;2.00;;
5742;SDS011;2896;53.500;10.020;2024-01-15T02:22:53;4.63;;;1.87;;
5742;SDS011;2896;53.500;10.020;2024-01-15T02:25:21;9.10;;;1.83;;
5742;SDS011;2896;53.500;10.020;2024-01-15T02:27:48;7.40;;;1.90;;
5742;SDS011;2896;53.500;10.020;2024-01-15T02:30:15;7.20;;;2.10;;
5742;SDS011;2896;53.500;10.020;2024-01-15T02:32:42;12.70;;;2.57;;
5742;SDS011;2896;53.500;10.020;2024-01-15T02:35:09;16.93;;;2.60;;
5742;SDS011;2896;53.500;10.020;2024-01-15T02:37:36;9.57;;;2.40;;
5742;SDS011;2896;53.500;10.020;2024-01-15T02:40:03;12.47;;;2.30;;
5742;SDS011;2896;53.500;10.020;2024-01-15T02:42:32;6.43;;;2.00;;
5742;SDS011;2896;53.500;10.020;2024-01-15T02:44:58;10.33;;;2.47;;
5742;SDS011;2896;53.500;10.020;2024-01-15T02:47:25;15.43;;;2.30;;
5742;SDS011;2896;53.500;10.020;2024-01-15T02:49:53;5.70;;;2.30;;
5742;SDS011;2896;53.500;10.020;2024-01-15T02:52:20;9.60;;;2.23;;
5742;SDS011;2896;53.500;10.020;2024-01-15T02:54:47;3.80;;;2.43;;
5742;SDS011;2896;53.500;10.020;2024-01-15T02:57:14;12.00;;;2.63;;
5742;SDS011;2896;53.500;10.020;2024-01-15T02:59:42;8.57;;;2.90;;
5742;SDS011;2896;53.500;10.020;2024-01-15T03:02:09;13.17;;;2.40;;
5742;SDS011;2896;53.500;10.020;2024-01-15T03:04:36;4.97;;;1.93;;
5742;SDS011;2896;53.500;10.020;2024-01-15T03:07:03;5.80;;;1.90;;
5742;SDS011;2896;53.500;10.020;2024-01-15T03:09:30;11.00;;;1.57;;
5742;SDS011;2896;53.500;10.020;2024-01-15T03:11:57;8.00;;;2.20;;
5742;SDS011;2896;53.500;10.020;2024-01-15T03:14:23;4.83;;;1.60;;
5742;SDS011;2896;53.500;10.020;2024-01-15T03:16:52;5.10;;;1.67;;
5742;SDS011;2896;53.500;10.020;2024-01-15T03:19:19;9.87;;;2.20;;
5742;SDS011;2896;53.500;10.020;2024-01-15T03:21:46;7.87;;;2.10;;
5742;SDS011;2896;53.500;10.020;2024-01-15T03:24:13;7.67;;;2.63;;
5742;SDS011;2896;53.500;10.020;2024-01-15T03:26:40;5.73;;;1.60;;
5742;SDS011;2896;53.500;10.020;2024-01-15T03:29:07;14.63;;;2.83;;
5742;SDS011;2896;53.500;10.020;2024-01-15T03:31:35;5.43;;;1.70;;
5742;SDS011;2896;53.500;10.020;2024-01-15T03:34:03;9.87;;;2.20;;
5742;SDS011;2896;53.500;10.020;2024-01-15T03:36:29;18.20;;;3.27;;
5742;SDS011;2896;53.500;10.020;2024-01-15T03:38:57;4.37;;;1.93;;
5742;SDS011;2896;53.500;10.020;2024-01-15T03:41:24;11.17;;;2.73;;
5742;SDS011;2896;53.500;10.020;2024-01-15T03:43:51;4.87;;;2.03;;
5742;SDS011;2896;53.500;10.020;2024-01-15T03:46:17;19.87;;;2.37;;
5742;SDS011;2896;53.500;10.020;2024-01-15T03:48:45;11.23;;;3.80;;
5742;SDS011;2896;53.500;10.020;2024-01-15T03:51:13;10.90;;;2.87;;
5742;SDS011;2896;53.500;10.020;2024-01-15T03:53:43;8.20;;;3.23;;
5742;SDS011;2896;53.500;10.020;2024-01-15T03:56:10;6.63;;;2.60;;
5742;SDS011;2896;53.500;10.020;2024-01-15T03:58:37;11.70;;;2.93;;
5742;SDS011;2896;53.500;10.020;2024-01-15T04:01:07;14.63;;;2.80;;
5742;SDS011;2896;53.500;10.020;2024-01-15T04:03:34;11.67;;;2.43;;
5742;SDS011;2896;53.500;10.020;2024-01-15T04:06:02;23.43;;;3.27;;
5742;SDS011;2896;53.500;10.020;2024-01-15T04:08:30;12.10;;;2.47;;
5742;SDS011;2896;53.500;10.020;2024-01-15T04:10:57;18.63;;;2.77;;
5742;SDS011;2896;53.500;10.020;2024-01-15T04:13:24;13.43;;;2.50;;
5742;SDS011;2896;53.500;10.020;2024-01-15T04:15:51;12.90;;;3.23;;
5742;SDS011;2896;53.500;10.020;2024-01-15T04:18:18;17.90;;;2.90;;
5742;SDS011;2896;53.500;10.020;2024-01-15T04:20:45;14.43;;;2.70;;
5742;SDS011;2896;53.500;10.020;2024-01-15T04:23:13;22.00;;;3.83;;
5742;SDS011;2896;53.500;10.020;2024-01-15T04:25:42;13.90;;;2.90;;
5742;SDS011;2896;53.500;10.020;2024-01-15T04:28:11;14.97;;;3.20;;
5742;SDS011;2896;53.500;10.020;2024-01-15T04:30:38;12.50;;;2.80;;
5742;SDS011;2896;53.500;10.020;2024-01-15T04:33:05;30.10;;;3.07;;
5742;SDS011;2896;53.500;10.020;2024-01-15T04:35:32;33.20;;;3.93;;
5742;SDS011;2896;53.500;10.020;2024-01-15T04:37:59;33.43;;;4.33;;
5742;SDS011;2896;53.500;10.020;2024-01-15T04:40:26;30.57;;;3.30;;
5742;SDS011;2896;53.500;10.020;2024-01-15T04:42:55;14.73;;;3.07;;
5742;SDS011;2896;53.500;10.020;2024-01-15T04:45:22;19.53;;;3.70;;
5742;SDS011;2896;53.500;10.020;2024-01-15T04:47:53;24.17;;;3.60;;
5742;SDS011;2896;53.500;10.020;2024-01-15T04:50:20;22.37;;;3.10;;
5742;SDS011;2896;53.500;10.020;2024-01-15T04:52:47;24.07;;;4.47;;
5742;SDS011;2896;53.500;10.020;2024-01-15T04:55:15;11.77;;;2.70;;
5742;SDS011;2896;53.500;10.020;2024-01-15T04:57:42;17.43;;;3.67;;
5742;SDS011;2896;53.500;10.020;2024-01-15T05:00:19;19.73;;;3.23;;
5742;SDS011;2896;53.500;10.020;2024-01-15T05:02:46;35.03;;;4.30;;
5742;SDS011;2896;53.500;10.020;2024-01-15T05:05:13;24.00;;;4.50;;
5742;SDS011;2896;53.500;10.020;2024-01-15T05:07:40;20.93;;;3.93;;
5742;SDS011;2896;53.500;10.020;2024-01-15T05:10:07;15.93;;;2.73;;
5742;SDS011;2896;53.500;10.020;2024-01-15T05:12:34;11.93;;;3.33;;
5742;SDS011;2896;53.500;10.020;2024-01-15T05:15:01;21.00;;;3.10;;
5742;SDS011;2896;53.500;10.020;2024-01-15T05:17:30;24.73;;;4.10;;
5742;SDS011;2896;53.500;10.020;2024-01-15T05:19:57;17.50;;;3.70;;
5742;SDS011;2896;53.500;10.020;2024-01-15T05:22:24;26.30;;;4.23;;
5742;SDS011;2896;53.500;10.020;2024-01-15T05:24:51;22.13;;;4.40;;
5742;SDS011;2896;53.500;10.020;2024-01-15T05:27:18;28.40;;;4.53;;
5742;SDS011;2896;53.500;10.020;2024-01-15T05:29:45;24.73;;;4.20;;
5742;SDS011;2896;53.500;10.020;2024-01-15T05:32:12;31.70;;;3.77;;
5742;SDS011;2896;53.500;10.020;2024-01-15T05:34:40;15.07;;;3.03;;
5742;SDS011;2896;53.500;10.020;2024-01-15T05:37:07;26.53;;;3.90;;
5742;SDS011;2896;53.500;10.020;2024-01-15T05:39:34;25.13;;;3.87;;
5742;SDS011;2896;53.500;10.020;2024-01-15T05:42:00;17.87;;;2.97;;
5742;SDS011;2896;53.500;10.020;2024-01-15T05:44:27;30.67;;;3.50;;
5742;SDS011;2896;53.500;10.020;2024-01-15T05:46:54;7.30;;;2.83;;
5742;SDS011;2896;53.500;10.020;2024-01-15T05:49:22;39.33;;;3.83;;
5742;SDS011;2896;53.500;10.020;2024-01-15T05:51:50;19.47;;;4.50;;
5742;SDS011;2896;53.500;10.020;2024-01-15T05:54:18;19.27;;;3.93;;
5742;SDS011;2896;53.500;10.020;2024-01-15T05:56:45;18.60;;;3.90;;
5742;SDS011;2896;53.500;10.020;2024-01-15T05:59:12;23.73;;;4.23;;
5742;SDS011;2896;53.500;10.020;2024-01-15T06:01:39;29.30;;;3.97;;
5742;SDS011;2896;53.500;10.020;2024-01-15T06:04:06;24.47;;;3.10;;
5742;SDS011;2896;53.500;10.020;2024-01-15T06:06:33;22.93;;;2.83;;
5742;SDS011;2896;53.500;10.020;2024-01-15T06:09:01;20.70;;;4.23;;
5742;SDS011;2896;53.500;10.020;2024-01-15T06:11:30;16.90;;;4.20;;
5742;SDS011;2896;53.500;10.020;2024-01-15T06:13:57;17.90;;;3.00;;
5742;SDS011;2896;53.500;10.020;2024-01-15T06:16:25;26.03;;;3.40;;
5742;SDS011;2896;53.500;10.020;2024-01-15T06:18:52;18.97;;;2.67;;
5742;SDS011;2896;53.500;10.020;2024-01-15T06:21:19;23.73;;;3.70;;
5742;SDS011;2896;53.500;10.020;2024-01-15T06:23:46;16.13;;;3.60;;
5742;SDS011;2896;53.500;10.020;2024-01-15T06:26:15;27.70;;;3.23;;
5742;SDS011;2896;53.500;10.020;2024-01-15T06:28:41;20.60;;;2.83;;
5742;SDS011;2896;53.500;10.020;2024-01-15T06:31:08;18.07;;;3.50;;
5742;SDS011;2896;53.500;10.020;2024-01-15T06:33:35;27.87;;;3.20;;
5742;SDS011;2896;53.500;10.020;2024-01-15T06:36:02;19.80;;;3.90;;
5742;SDS011;2896;53.500;10.020;2024-01-15T06:38:29;15.53;;;2.90;;
5742;SDS011;2896;53.500;10.020;2024-01-15T06:40:55;12.90;;;4.17;;
5742;SDS011;2896;53.500;10.020;2024-01-15T06:43:24;20.73;;;3.80;;
5742;SDS011;2896;53.500;10.020;2024-01-15T06:45:50;20.30;;;3.63;;
5742;SDS011;2896;53.500;10.020;2024-01-15T06:48:17;9.67;;;2.60;;
5742;SDS011;2896;53.500;10.020;2024-01-15T06:50:44;21.75;;;3.20;;
5742;SDS011;2896;53.500;10.020;2024-01-15T06:53:11;10.70;;;3.00;;
5742;SDS011;2896;53.500;10.020;2024-01-15T06:55:39;13.73;;;2.90;;
5742;SDS011;2896;53.500;10.020;2024-01-15T06:58:07;19.33;;;3.27;;
5742;SDS011;2896;53.500;10.020;2024-01-15T07:00:35;13.47;;;3.53;;
5742;SDS011;2896;53.500;10.020;2024-01-15T07:03:02;14.83;;;3.07;;
5742;SDS011;2896;53.500;10.020;2024-01-15T07:05:30;20.80;;;3.67;;
5742;SDS011;2896;53.500;10.020;2024-01-15T07:07:57;13.23;;;2.20;;
5742;SDS011;2896;53.500;10.020;2024-01-15T07:10:27;9.83;;;2.70;;
5742;SDS011;2896;53.500;10.020;2024-01-15T07:12:54;25.63;;;3.67;;
5742;SDS011;2896;53.500;10.020;2024-01-15T07:15:20;12.80;;;3.77;;
5742;SDS011;2896;53.500;10.020;2024-01-15T07:17:49;17.73;;;3.27;;
5742;SDS011;2896;53.500;10.020;2024-01-15T07:20:18;15.63;;;4.10;;
5742;SDS011;2896;53.500;10.020;2024-01-15T07:22:45;15.83;;;2.30;;
5742;SDS011;2896;53.500;10.020;2024-01-15T07:25:12;10.43;;;2.90;;
5742;SDS011;2896;53.500;10.020;2024-01-15T07:27:39;11.30;;;2.97;;
5742;SDS011;2896;53.500;10.020;2024-01-15T07:30:09;12.77;;;2.43;;
5742;SDS011;2896;53.500;10.020;2024-01-15T07:32:37;16.03;;;2.20;;
5742;SDS011;2896;53.500;10.020;2024-01-15T07:35:05;14.83;;;2.93;;
5742;SDS011;2896;53.500;10.020;2024-01-15T07:37:32;28.00;;;3.70;;
5742;SDS011;2896;53.500;10.020;2024-01-15T07:39:59;18.90;;;3.43;;
5742;SDS011;2896;53.500;10.020;2024-01-15T07:42:25;28.30;;;3.17;;
5742;SDS011;2896;53.500;10.020;2024-01-15T07:44:52;8.73;;;2.23;;
5742;SDS011;2896;53.500;10.020;2024-01-15T07:47:18;17.70;;;3.13;;
5742;SDS011;2896;53.500;10.020;2024-01-15T07:49:45;8.07;;;2.33;;
5742;SDS011;2896;53.500;10.020;2024-01-15T07:52:13;6.10;;;2.27;;
5742;SDS011;2896;53.500;10.020;2024-01-15T07:54:40;16.50;;;2.30;;
5742;SDS011;2896;53.500;10.020;2024-01-15T07:57:07;13.47;;;3.90;;
5742;SDS011;2896;53.500;10.020;2024-01-15T07:59:34;12.50;;;2.47;;
5742;SDS011;2896;53.500;10.020;2024-01-15T08:02:02;12.87;;;3.43;;
5742;SDS011;2896;53.500;10.020;2024-01-15T08:04:29;14.77;;;2.30;;
5742;SDS011;2896;53.500;10.020;2024-01-15T08:06:58;12.93;;;2.67;;
5742;SDS011;2896;53.500;10.020;2024-01-15T08:09:29;15.40;;;2.23;;
5742;SDS011;2896;53.500;10.020;2024-01-15T08:11:56;9.10;;;2.50;;
5742;SDS011;2896;53.500;10.020;2024-01-15T08:14:23;10.03;;;1.87;;
5742;SDS011;2896;53.500;10.020;2024-01-15T08:16:51;11.43;;;2.63;;
5742;SDS011;2896;53.500;10.020;2024-01-15T08:19:22;3.27;;;1.70;;
5742;SDS011;2896;53.500;10.020;2024-01-15T08:21:50;9.83;;;2.67;;
5742;SDS011;2896;53.500;10.020;2024-01-15T08:24:17;8.40;;;1.77;;
5742;SDS011;2896;53.500;10.020;2024-01-15T08:26:46;4.30;;;1.87;;
5742;SDS011;2896;53.500;10.020;2024-01-15T08:29:13;10.13;;;2.30;;
5742;SDS011;2896;53.500;10.020;2024-01-15T08:31:41;8.73;;;1.67;;
5742;SDS011;2896;53.500;10.020;2024-01-15T08:34:08;13.90;;;3.27;;
5742;SDS011;2896;53.500;10.020;2024-01-15T08:36:35;13.93;;;2.03;;
5742;SDS011;2896;53.500;10.020;2024-01-15T08:39:07;6.83;;;1.63;;
5742;SDS011;2896;53.500;10.020;2024-01-15T08:41:34;5.73;;;1.87;;
5742;SDS011;2896;53.500;10.020;2024-01-15T08:44:03;15.57;;;2.47;;
5742;SDS011;2896;53.500;10.020;2024-01-15T08:46:31;5.70;;;1.77;;
5742;SDS011;2896;53.500;10.020;2024-01-15T08:48:58;6.73;;;2.27;;
5742;SDS011;2896;53.500;10.020;2024-01-15T08:51:27;6.93;;;1.83;;
5742;SDS011;2896;53.500;10.020;2024-01-15T08:54:04;10.07;;;2.30;;
5742;SDS011;2896;53.500;10.020;2024-01-15T08:56:39;5.23;;;2.30;;
5742;SDS011;2896;53.500;10.020;2024-01-15T08:59:10;5.53;;;1.97;;
5742;SDS011;2896;53.500;10.020;2024-01-15T09:01:42;6.97;;;1.87;;
5742;SDS011;2896;53.500;10.020;2024-01-15T09:04:09;10.57;;;2.10;;
5742;SDS011;2896;53.500;10.020;2024-01-15T09:06:36;8.67;;;1.90;;
5742;SDS011;2896;53.500;10.020;2024-01-15T09:09:03;5.70;;;3.10;;
5742;SDS011;2896;53.500;10.020;2024-01-15T09:11:31;4.63;;;2.37;;
5742;SDS011;2896;53.500;10.020;2024-01-15T09:13:59;11.93;;;2.20;;
5742;SDS011;2896;53.500;10.020;2024-01-15T09:16:28;5.07;;;2.00;;
5742;SDS011;2896;53.500;10.020;2024-01-15T09:19:06;8.20;;;2.87;;
5742;SDS011;2896;53.500;10.020;2024-01-15T09:21:34;3.80;;;2.47;;
5742;SDS011;2896;53.500;10.020;2024-01-15T09:24:04;6.63;;;2.53;;
5742;SDS011;2896;53.500;10.020;2024-01-15T09:26:36;10.07;;;2.33;;
5742;SDS011;2896;53.500;10.020;2024-01-15T09:29:06;5.10;;;2.17;;
5742;SDS011;2896;53.500;10.020;2024-01-15T09:34:28;4.50;;;1.70;;
5742;SDS011;2896;53.500;10.020;2024-01-15T09:36:55;16.53;;;1.90;;
5742;SDS011;2896;53.500;10.020;2024-01-15T09:39:23;6.83;;;1.80;;
5742;SDS011;2896;53.500;10.020;2024-01-15T09:41:51;8.57;;;2.80;;
5742;SDS011;2896;53.500;10.020;2024-01-15T09:44:21;4.47;;;1.70;;
5742;SDS011;2896;53.500;10.020;2024-01-15T09:46:49;8.33;;;2.63;;
5742;SDS011;2896;53.500;10.020;2024-01-15T09:49:23;3.70;;;2.00;;
5742;SDS011;2896;53.500;10.020;2024-01-15T09:51:55;4.27;;;1.67;;
5742;SDS011;2896;53.500;10.020;2024-01-15T09:54:26;5.00;;;1.73;;
5742;SDS011;2896;53.500;10.020;2024-01-15T09:56:53;18.13;;;3.50;;
5742;SDS011;2896;53.500;10.020;2024-01-15T09:59:21;6.40;;;2.63;;
5742;SDS011;2896;53.500;10.020;2024-01-15T10:01:53;5.63;;;2.00;;
5742;SDS011;2896;53.500;10.020;2024-01-15T10:04:21;3.50;;;1.93;;
5742;SDS011;2896;53.500;10.020;2024-01-15T10:06:50;4.47;;;1.80;;
5742;SDS011;2896;53.500;10.020;2024-01-15T10:09:18;4.00;;;1.73;;
5742;SDS011;2896;53.500;10.020;2024-01-15T10:11:45;10.33;;;1.70;;
5742;SDS011;2896;53.500;10.020;2024-01-15T10:14:12;9.70;;;1.90;;
5742;SDS011;2896;53.500;10.020;2024-01-15T10:16:43;5.90;;;1.97;;
5742;SDS011;2896;53.500;10.020;2024-01-15T10:19:31;7.47;;;2.30;;
5742;SDS011;2896;53.500;10.020;2024-01-15T10:21:57;11.20;;;2.90;;
5742;SDS011;2896;53.500;10.020;2024-01-15T10:24:26;7.13;;;2.80;;
5742;SDS011;2896;53.500;10.020;2024-01-15T10:26:59;3.93;;;2.67;;
5742;SDS011;2896;53.500;10.020;2024-01-15T10:29:31;9.17;;;2.50;;
5742;SDS011;2896;53.500;10.020;2024-01-15T10:31:58;7.73;;;2.43;;
5742;SDS011;2896;53.500;10.020;2024-01-15T10:34:26;4.20;;;2.40;;
5742;SDS011;2896;53.500;10.020;2024-01-15T10:36:54;5.77;;;2.10;;
5742;SDS011;2896;53.500;10.020;2024-01-15T10:39:21;3.53;;;2.40;;
5742;SDS011;2896;53.500;10.020;2024-01-15T10:41:48;6.80;;;2.10;;
5742;SDS011;2896;53.500;10.020;2024-01-15T10:44:15;9.60;;;2.47;;
5742;SDS011;2896;53.500;10.020;2024-01-15T10:46:43;3.53;;;1.53;;
5742;SDS011;2896;53.500;10.020;2024-01-15T10:49:10;2.73;;;1.80;;
5742;SDS011;2896;53.500;10.020;2024-01-15T10:51:38;4.37;;;1.30;;
5742;SDS011;2896;53.500;10.020;2024-01-15T10:54:07;4.10;;;1.33;;
5742;SDS011;2896;53.500;10.020;2024-01-15T10:56:36;6.43;;;1.93;;
5742;SDS011;2896;53.500;10.020;2024-01-15T10:59:03;2.73;;;1.47;;
5742;SDS011;2896;53.500;10.020;2024-01-15T11:01:32;2.63;;;1.53;;
5742;SDS011;2896;53.500;10.020;2024-01-15T11:04:00;2.93;;;1.37;;
5742;SDS011;2896;53.500;10.020;2024-01-15T11:06:27;5.50;;;1.50;;
5742;SDS011;2896;53.500;10.020;2024-01-15T11:08:54;1.60;;;1.50;;
5742;SDS011;2896;53.500;10.020;2024-01-15T11:11:23;4.90;;;2.03;;
5742;SDS011;2896;53.500;10.020;2024-01-15T11:13:49;1.37;;;1.27;;
5742;SDS011;2896;53.500;10.020;2024-01-15T11:16:17;12.03;;;1.47;;
5742;SDS011;2896;53.500;10.020;2024-01-15T11:19:01;3.17;;;1.40;;
5742;SDS011;2896;53.500;10.020;2024-01-15T11:21:28;5.70;;;2.10;;
5742;SDS011;2896;53.500;10.020;2024-01-15T11:23:56;4.17;;;1.70;;
5742;SDS011;2896;53.500;10.020;2024-01-15T11:26:32;3.60;;;2.50;;
5742;SDS011;2896;53.500;10.020;2024-01-15T11:29:01;2.27;;;2.10;;
5742;SDS011;2896;53.500;10.020;2024-01-15T11:31:29;2.23;;;2.00;;
5742;SDS011;2896;53.500;10.020;2024-01-15T11:34:49;6.50;;;2.33;;
5742;SDS011;2896;53.500;10.020;2024-01-15T11:37:27;1.90;;;1.63;;
5742;SDS011;2896;53.500;10.020;2024-01-15T11:39:54;9.37;;;1.80;;
5742;SDS011;2896;53.500;10.020;2024-01-15T11:42:23;1.77;;;1.77;;
5742;SDS011;2896;53.500;10.020;2024-01-15T11:44:50;1.87;;;1.53;;
5742;SDS011;2896;53.500;10.020;2024-01-15T11:47:17;1.43;;;1.43;;
5742;SDS011;2896;53.500;10.020;2024-01-15T11:50:06;1.97;;;1.50;;
5742;SDS011;2896;53.500;10.020;2024-01-15T11:52:34;1.73;;;1.63;;
5742;SDS011;2896;53.500;10.020;2024-01-15T11:55:02;1.77;;;1.67;;
5742;SDS011;2896;53.500;10.020;2024-01-15T11:57:49;1.77;;;1.67;;
5742;SDS011;2896;53.500;10.020;2024-01-15T12:00:17;2.30;;;1.87;;
5742;SDS011;2896;53.500;10.020;2024-01-15T12:02:44;8.50;;;2.00;;
5742;SDS011;2896;53.500;10.020;2024-01-15T12:05:13;1.80;;;1.70;;
5742;SDS011;2896;53.500;10.020;2024-01-15T12:07:41;2.20;;;2.07;;
5742;SDS011;2896;53.500;10.020;2024-01-15T12:10:08;1.57;;;1.57;;
5742;SDS011;2896;53.500;10.020;2024-01-15T12:12:41;5.07;;;2.60;;
5742;SDS011;2896;53.500;10.020;2024-01-15T12:15:19;1.90;;;1.80;;
5742;SDS011;2896;53.500;10.020;2024-01-15T12:17:46;2.07;;;1.80;;
5742;SDS011;2896;53.500;10.020;2024-01-15T12:20:13;4.03;;;2.17;;
5742;SDS011;2896;53.500;10.020;2024-01-15T12:22:40;2.70;;;2.00;;
5742;SDS011;2896;53.500;10.020;2024-01-15T12:25:07;2.93;;;2.73;;
5742;SDS011;2896;53.500;10.020;2024-01-15T12:27:34;6.33;;;2.30;;
5742;SDS011;2896;53.500;10.020;2024-01-15T12:30:02;2.43;;;2.10;;
5742;SDS011;2896;53.500;10.020;2024-01-15T12:32:30;7.27;;;3.30;;
5742;SDS011;2896;53.500;10.020;2024-01-15T12:34:56;4.53;;;2.23;;
5742;SDS011;2896;53.500;10.020;2024-01-15T12:37:23;3.07;;;1.67;;
5742;SDS011;2896;53.500;10.020;2024-01-15T12:39:51;1.43;;;1.43;;
5742;SDS011;2896;53.500;10.020;2024-01-15T12:42:20;2.23;;;2.03;;
5742;SDS011;2896;53.500;10.020;2024-01-15T12:44:47;2.20;;;2.10;;
5742;SDS011;2896;53.500;10.020;2024-01-15T12:47:16;4.10;;;2.17;;
5742;SDS011;2896;53.500;10.020;2024-01-15T12:49:46;1.77;;;1.67;;
5742;SDS011;2896;53.500;10.020;2024-01-15T12:52:15;2.13;;;2.10;;
5742;SDS011;2896;53.500;10.020;2024-01-15T12:54:41;1.40;;;1.40;;
5742;SDS011;2896;53.500;10.020;2024-01-15T12:57:08;1.70;;;1.60;;
5742;SDS011;2896;53.500;10.020;2024-01-15T12:59:35;3.70;;;1.60;;
5742;SDS011;2896;53.500;10.020;2024-01-15T13:02:02;2.73;;;1.73;;
5742;SDS011;2896;53.500;10.020;2024-01-15T13:04:30;1.80;;;1.80;;
5742;SDS011;2896;53.500;10.020;2024-01-15T13:06:57;1.83;;;1.73;;
5742;SDS011;2896;53.500;10.020;2024-01-15T13:09:24;2.33;;;2.20;;
5742;SDS011;2896;53.500;10.020;2024-01-15T13:11:51;2.27;;;2.17;;
5742;SDS011;2896;53.500;10.020;2024-01-15T13:14:17;3.63;;;2.23;;
5742;SDS011;2896;53.500;10.020;2024-01-15T13:16:44;2.30;;;2.20;;
5742;SDS011;2896;53.500;10.020;2024-01-15T13:19:11;3.20;;;2.20;;
5742;SDS011;2896;53.500;10.020;2024-01-15T13:21:40;2.17;;;2.13;;
5742;SDS011;2896;53.500;10.020;2024-01-15T13:24:07;10.53;;;2.70;;
5742;SDS011;2896;53.500;10.020;2024-01-15T13:26:34;2.83;;;2.60;;
5742;SDS011;2896;53.500;10.020;2024-01-15T13:29:01;4.40;;;2.80;;
5742;SDS011;2896;53.500;10.020;2024-01-15T13:31:28;3.50;;;3.20;;
5742;SDS011;2896;53.500;10.020;2024-01-15T13:33:55;2.50;;;2.40;;
5742;SDS011;2896;53.500;10.020;2024-01-15T13:36:23;2.83;;;2.67;;
5742;SDS011;2896;53.500;10.020;2024-01-15T13:38:51;4.13;;;3.13;;
5742;SDS011;2896;53.500;10.020;2024-01-15T13:41:18;2.77;;;2.67;;
5742;SDS011;2896;53.500;10.020;2024-01-15T13:43:48;4.43;;;3.40;;
5742;SDS011;2896;53.500;10.020;2024-01-15T13:46:16;4.20;;;2.80;;
5742;SDS011;2896;53.500;10.020;2024-01-15T13:48:43;3.60;;;3.40;;
5742;SDS011;2896;53.500;10.020;2024-01-15T13:51:10;5.70;;;3.37;;
5742;SDS011;2896;53.500;10.020;2024-01-15T13:53:37;4.20;;;3.90;;
5742;SDS011;2896;53.500;10.020;2024-01-15T13:56:06;3.20;;;3.00;;
5742;SDS011;2896;53.500;10.020;2024-01-15T13:58:35;5.13;;;3.40;;
5742;SDS011;2896;53.500;10.020;2024-01-15T14:01:02;9.57;;;4.63;;
5742;SDS011;2896;53.500;10.020;2024-01-15T14:03:30;5.50;;;4.47;;
5742;SDS011;2896;53.500;10.020;2024-01-15T14:06:00;4.07;;;3.70;;
5742;SDS011;2896;53.500;10.020;2024-01-15T14:08:28;4.43;;;4.10;;
5742;SDS011;2896;53.500;10.020;2024-01-15T14:10:55;5.30;;;4.80;;
5742;SDS011;2896;53.500;10.020;2024-01-15T14:13:24;7.80;;;5.17;;
5742;SDS011;2896;53.500;10.020;2024-01-15T14:15:50;11.77;;;5.27;;
5742;SDS011;2896;53.500;10.020;2024-01-15T14:18:17;8.00;;;4.97;;
5742;SDS011;2896;53.500;10.020;2024-01-15T14:20:44;12.93;;;5.30;;
5742;SDS011;2896;53.500;10.020;2024-01-15T14:23:12;9.67;;;5.97;;
5742;SDS011;2896;53.500;10.020;2024-01-15T14:25:39;7.80;;;5.87;;
5742;SDS011;2896;53.500;10.020;2024-01-15T14:28:06;9.20;;;6.33;;
5742;SDS011;2896;53.500;10.020;2024-01-15T14:30:37;7.03;;;4.17;;
5742;SDS011;2896;53.500;10.020;2024-01-15T14:33:03;3.70;;;3.37;;
5742;SDS011;2896;53.500;10.020;2024-01-15T14:35:30;7.83;;;3.40;;
5742;SDS011;2896;53.500;10.020;2024-01-15T14:37:57;3.90;;;3.60;;
5742;SDS011;2896;53.500;10.020;2024-01-15T14:40:24;4.83;;;3.20;;
5742;SDS011;2896;53.500;10.020;2024-01-15T14:42:51;4.23;;;3.93;;
5742;SDS011;2896;53.500;10.020;2024-01-15T14:45:18;4.27;;;3.60;;
5742;SDS011;2896;53.500;10.020;2024-01-15T14:47:46;4.53;;;4.13;;
5742;SDS011;2896;53.500;10.020;2024-01-15T14:50:13;6.97;;;4.63;;
5742;SDS011;2896;53.500;10.020;2024-01-15T14:52:39;7.07;;;4.50;;
5742;SDS011;2896;53.500;10.020;2024-01-15T14:55:07;5.53;;;4.60;;
5742;SDS011;2896;53.500;10.020;2024-01-15T14:57:34;4.50;;;4.20;;
5742;SDS011;2896;53.500;10.020;2024-01-15T15:00:02;8.47;;;5.13;;
5742;SDS011;2896;53.500;10.020;2024-01-15T15:02:32;6.37;;;5.03;;